Time;durP1;ratioP1;P1;durP2;ratioP2;P2;SDS_P1;SDS_P2;PMS_P1;PMS_P2;Temp;Humidity;BMP_temperature;BMP_pressure;BME280_temperature;BME280_humidity;BME280_pressure;Samples;Min_cycle;Max_cycle;Signal;HPM_P1;HPM_P2
2022/01/21 00:01:06;;;;;;;8.67;3.50;;;1.70;99.90;;;;;;5074744;28;20558;-65
2022/01/21 00:03:33;;;;;;;4.70;3.00;;;1.60;99.90;;;;;;5075150;28;20465;-66
2022/01/21 00:06:00;;;;;;;8.33;3.30;;;1.50;99.90;;;;;;5075083;28;20523;-65
2022/01/21 00:08:28;;;;;;;4.90;3.00;;;1.50;99.90;;;;;;5075618;28;20592;-67
2022/01/21 00:10:55;;;;;;;5.70;3.63;;;1.50;99.90;;;;;;5074708;28;21018;-66
2022/01/21 00:13:25;;;;;;;10.57;4.57;;;1.50;99.90;;;;;;5075244;28;20446;-67
2022/01/21 00:15:52;;;;;;;8.37;3.83;;;1.40;99.90;;;;;;5075439;28;20442;-67
2022/01/21 00:18:20;;;;;;;10.20;3.37;;;1.40;99.90;;;;;;5074784;28;20580;-67
2022/01/21 00:31:45;;;;;;;6.60;4.30;;;1.40;99.90;;;;;;5074943;28;20850;-66
2022/01/21 00:34:12;;;;;;;6.43;2.70;;;1.50;99.90;;;;;;5075470;28;20530;-66
2022/01/21 00:36:39;;;;;;;7.80;4.23;;;1.60;99.90;;;;;;5075138;28;20515;-67
2022/01/21 00:39:07;;;;;;;4.43;3.60;;;1.60;99.90;;;;;;5074958;28;20527;-67
2022/01/21 00:41:40;;;;;;;7.43;3.00;;;1.70;99.90;;;;;;5074606;28;20584;-67
2022/01/21 00:44:07;;;;;;;6.37;3.60;;;1.70;99.90;;;;;;5075089;28;20801;-66
2022/01/21 00:46:34;;;;;;;10.23;3.97;;;1.70;99.90;;;;;;5075159;28;20546;-66
2022/01/21 00:49:01;;;;;;;10.10;3.57;;;1.80;99.90;;;;;;5074852;28;20446;-66
2022/01/21 00:51:28;;;;;;;8.03;3.10;;;1.80;99.90;;;;;;5075386;28;20475;-68
2022/01/21 00:53:55;;;;;;;8.07;3.80;;;1.90;99.90;;;;;;5076097;28;20446;-67
2022/01/21 00:56:23;;;;;;;7.53;3.23;;;1.80;99.90;;;;;;5074454;28;20526;-67
2022/01/21 00:58:50;;;;;;;9.67;3.57;;;1.90;99.90;;;;;;5075059;28;20526;-67
2022/01/21 01:01:17;;;;;;;9.80;3.70;;;1.90;99.90;;;;;;5074967;28;20533;-66
2022/01/21 01:03:44;;;;;;;7.63;3.40;;;1.90;99.90;;;;;;5075939;28;20995;-67
2022/01/21 01:06:11;;;;;;;7.77;3.70;;;1.90;99.90;;;;;;5075976;28;20444;-67
2022/01/21 01:08:38;;;;;;;6.50;3.27;;;1.90;99.90;;;;;;5075991;28;20549;-68
2022/01/21 01:11:28;;;;;;;8.53;3.90;;;1.90;99.90;;;;;;5074646;28;20464;-67
2022/01/21 01:22:10;;;;;;;6.63;3.50;;;2.00;99.90;;;;;;5074500;28;20907;-67
2022/01/21 01:27:37;;;;;;;16.47;3.53;;;2.00;99.90;;;;;;5074349;28;20418;-67
2022/01/21 01:30:08;;;;;;;6.40;3.20;;;2.00;99.90;;;;;;5072907;28;20482;-67
2022/01/21 01:32:35;;;;;;;7.00;3.30;;;2.00;99.90;;;;;;5073870;28;20475;-65
2022/01/21 01:35:02;;;;;;;6.93;3.40;;;2.00;99.90;;;;;;5073533;28;20455;-65
2022/01/21 01:37:42;;;;;;;8.23;3.73;;;2.00;99.90;;;;;;5073041;28;20542;-66
2022/01/21 01:40:19;;;;;;;5.90;2.93;;;2.00;99.90;;;;;;5073281;28;21063;-66
2022/01/21 01:43:20;;;;;;;7.20;3.20;;;1.90;99.90;;;;;;5073610;28;20480;-66
2022/01/21 01:51:18;;;;;;;8.33;3.30;;;1.90;99.90;;;;;;5072881;28;20442;-66
2022/01/21 01:53:50;;;;;;;6.37;3.07;;;2.00;99.90;;;;;;5073628;28;20526;-65
2022/01/21 01:56:20;;;;;;;4.87;3.00;;;2.00;99.90;;;;;;5073599;28;20531;-66
2022/01/21 01:58:47;;;;;;;9.97;3.33;;;2.00;99.90;;;;;;5073317;28;20573;-64
2022/01/21 02:01:15;;;;;;;9.03;3.30;;;2.00;99.90;;;;;;5072516;28;20509;-66
2022/01/21 02:03:42;;;;;;;8.00;3.40;;;2.00;99.90;;;;;;5072799;28;20452;-66
2022/01/21 02:06:09;;;;;;;13.90;3.80;;;1.90;99.90;;;;;;5072573;28;20444;-66
2022/01/21 02:08:36;;;;;;;5.27;2.97;;;2.00;99.90;;;;;;5072809;28;20446;-66
2022/01/21 02:11:03;;;;;;;10.33;4.40;;;2.00;99.90;;;;;;5071775;28;20468;-66
2022/01/21 02:13:33;;;;;;;6.43;3.70;;;1.90;99.90;;;;;;5072100;28;20444;-66
2022/01/21 02:16:05;;;;;;;7.20;3.60;;;1.90;99.90;;;;;;5072331;28;20451;-68
2022/01/21 02:21:31;;;;;;;7.87;3.50;;;1.80;99.90;;;;;;5071119;28;20504;-65
2022/01/21 02:24:00;;;;;;;7.80;4.30;;;1.70;99.90;;;;;;5071752;28;20457;-65
2022/01/21 02:26:27;;;;;;;6.13;3.43;;;1.70;99.90;;;;;;5072078;28;20452;-65
2022/01/21 02:28:55;;;;;;;10.53;3.63;;;1.70;99.90;;;;;;5073341;28;20535;-65
2022/01/21 02:31:22;;;;;;;11.70;3.90;;;1.70;99.90;;;;;;5072993;28;20481;-67
2022/01/21 02:33:50;;;;;;;6.50;2.97;;;1.70;99.90;;;;;;5072845;28;21097;-65
2022/01/21 02:36:17;;;;;;;13.67;4.30;;;1.60;99.90;;;;;;5072726;28;20479;-65
2022/01/21 02:38:45;;;;;;;11.93;3.40;;;1.60;99.90;;;;;;5072750;28;20487;-65
2022/01/21 02:41:12;;;;;;;7.20;3.43;;;1.60;99.90;;;;;;5072742;28;20467;-66
2022/01/21 02:43:39;;;;;;;10.40;3.97;;;1.50;99.90;;;;;;5073154;28;20978;-66
2022/01/21 02:46:08;;;;;;;6.10;3.30;;;1.50;99.90;;;;;;5073130;28;20790;-66
2022/01/21 02:48:37;;;;;;;11.10;3.87;;;1.40;99.90;;;;;;5071959;28;20505;-66
2022/01/21 02:51:07;;;;;;;7.67;2.60;;;1.40;99.90;;;;;;5073077;28;20515;-66
2022/01/21 02:54:03;;;;;;;6.03;2.80;;;1.40;99.90;;;;;;5073133;28;20822;-67
2022/01/21 02:56:28;;;;;;;10.47;3.17;;;1.40;99.90;;;;;;5073401;28;20436;-65
2022/01/21 02:58:56;;;;;;;8.70;3.40;;;1.50;99.90;;;;;;5072716;28;20520;-66
2022/01/21 03:01:23;;;;;;;8.17;3.20;;;1.50;99.90;;;;;;5072390;28;20469;-66
2022/01/21 03:03:50;;;;;;;8.83;3.43;;;1.50;99.90;;;;;;5073209;28;20486;-65
2022/01/21 03:06:19;;;;;;;10.40;4.50;;;1.60;99.90;;;;;;5073450;28;20542;-69
2022/01/21 03:08:48;;;;;;;8.07;3.50;;;1.60;99.90;;;;;;5072377;28;20440;-65
2022/01/21 03:11:15;;;;;;;5.97;2.90;;;1.60;99.90;;;;;;5072565;28;20560;-65
2022/01/21 03:13:44;;;;;;;11.57;3.70;;;1.70;99.90;;;;;;5073308;28;20445;-66
2022/01/21 03:16:12;;;;;;;4.67;2.57;;;1.70;99.90;;;;;;5073374;28;20956;-65
2022/01/21 03:18:39;;;;;;;8.43;3.90;;;1.70;99.90;;;;;;5073261;28;20487;-67
2022/01/21 03:21:07;;;;;;;7.90;3.40;;;1.70;99.90;;;;;;5073123;28;20470;-65
2022/01/21 03:23:34;;;;;;;9.00;3.63;;;1.70;99.90;;;;;;5073753;28;20447;-66
2022/01/21 03:26:01;;;;;;;10.03;4.30;;;1.70;99.90;;;;;;5073123;28;20486;-67
2022/01/21 03:28:28;;;;;;;11.80;3.50;;;1.70;99.90;;;;;;5072574;28;21009;-66
2022/01/21 03:30:56;;;;;;;9.23;3.37;;;1.70;99.90;;;;;;5072377;28;20527;-67
2022/01/21 03:33:25;;;;;;;13.43;3.80;;;1.60;99.90;;;;;;5072963;28;20443;-65
2022/01/21 03:35:53;;;;;;;11.03;3.87;;;1.60;99.90;;;;;;5074417;28;20490;-65
2022/01/21 03:38:24;;;;;;;7.70;3.30;;;1.50;99.90;;;;;;5074559;28;20547;-65
2022/01/21 03:40:51;;;;;;;5.50;3.40;;;1.40;99.90;;;;;;5074336;28;20547;-66
2022/01/21 03:43:18;;;;;;;5.77;3.50;;;1.40;99.90;;;;;;5074320;28;20446;-66
2022/01/21 03:45:45;;;;;;;11.63;3.87;;;1.30;99.90;;;;;;5074575;28;20453;-66
2022/01/21 03:48:13;;;;;;;7.90;3.70;;;1.30;99.90;;;;;;5073072;28;20448;-67
2022/01/21 03:50:40;;;;;;;9.53;3.50;;;1.30;99.90;;;;;;5071082;28;20450;-66
2022/01/21 03:53:07;;;;;;;8.87;4.00;;;1.40;99.90;;;;;;5071881;28;20570;-66
2022/01/21 03:55:34;;;;;;;12.27;3.87;;;1.40;99.90;;;;;;5072313;28;20445;-65
2022/01/21 03:58:02;;;;;;;9.20;5.37;;;1.50;99.90;;;;;;5072070;28;20534;-66
2022/01/21 04:00:32;;;;;;;12.93;4.20;;;1.40;99.90;;;;;;5074573;28;20451;-65
2022/01/21 04:02:59;;;;;;;9.37;3.30;;;1.40;99.90;;;;;;5075671;28;20495;-65
2022/01/21 04:05:28;;;;;;;5.87;3.00;;;1.40;99.90;;;;;;5075470;28;20450;-65
2022/01/21 04:07:55;;;;;;;12.87;3.57;;;1.40;99.90;;;;;;5075463;28;20442;-66
2022/01/21 04:10:22;;;;;;;8.07;3.83;;;1.40;99.90;;;;;;5074698;28;20453;-66
2022/01/21 04:12:49;;;;;;;5.03;3.80;;;1.40;99.90;;;;;;5074285;28;20476;-65
2022/01/21 04:15:17;;;;;;;5.93;3.43;;;1.40;99.90;;;;;;5074754;28;20451;-66
2022/01/21 04:17:44;;;;;;;8.80;4.00;;;1.30;99.90;;;;;;5074773;28;20478;-65
2022/01/21 04:20:14;;;;;;;7.70;3.47;;;1.30;99.90;;;;;;5074510;28;20457;-65
2022/01/21 04:22:43;;;;;;;8.90;3.97;;;1.30;99.90;;;;;;5075086;28;20550;-66
2022/01/21 04:25:11;;;;;;;8.90;3.80;;;1.30;99.90;;;;;;5075100;28;20529;-65
2022/01/21 04:27:38;;;;;;;11.33;4.70;;;1.20;99.90;;;;;;5074934;28;20959;-65
2022/01/21 04:30:06;;;;;;;8.60;4.00;;;1.20;99.90;;;;;;5074483;28;20546;-65
2022/01/21 04:32:33;;;;;;;8.70;5.07;;;1.10;99.90;;;;;;5074467;28;20845;-65
2022/01/21 04:35:00;;;;;;;10.43;4.80;;;1.00;99.90;;;;;;5073917;28;20448;-64
2022/01/21 04:37:27;;;;;;;6.47;3.97;;;1.00;99.90;;;;;;5074484;28;20451;-64
2022/01/21 04:40:01;;;;;;;11.93;4.20;;;0.90;99.90;;;;;;5073373;28;20451;-65
2022/01/21 04:47:56;;;;;;;9.97;4.07;;;0.90;99.90;;;;;;5074397;28;20464;-66
2022/01/21 04:50:25;;;;;;;7.10;4.40;;;0.80;99.90;;;;;;5074403;28;20489;-65
2022/01/21 04:52:52;;;;;;;8.17;4.57;;;0.80;99.90;;;;;;5074843;28;20933;-65
2022/01/21 04:55:20;;;;;;;9.30;3.90;;;0.80;99.90;;;;;;5074808;28;20455;-66
2022/01/21 04:57:47;;;;;;;11.13;4.30;;;0.80;99.90;;;;;;5075083;28;20451;-67
2022/01/21 05:00:14;;;;;;;12.87;5.60;;;0.80;99.90;;;;;;5074960;28;20487;-65
2022/01/21 05:02:41;;;;;;;10.10;4.00;;;0.80;99.90;;;;;;5074197;28;20470;-65
2022/01/21 05:05:09;;;;;;;9.83;4.27;;;0.80;99.90;;;;;;5074697;28;20543;-65
2022/01/21 05:07:39;;;;;;;8.77;4.40;;;0.90;99.90;;;;;;5074877;28;20512;-65
2022/01/21 05:10:06;;;;;;;14.00;5.30;;;0.90;99.90;;;;;;5074107;28;20880;-64
2022/01/21 05:12:35;;;;;;;10.33;4.63;;;1.00;99.90;;;;;;5073073;28;20556;-67
2022/01/21 05:15:16;;;;;;;10.10;4.00;;;1.00;99.90;;;;;;5073171;28;20457;-66
2022/01/21 05:17:48;;;;;;;8.83;4.37;;;1.10;99.90;;;;;;5074573;28;20921;-67
2022/01/21 05:20:15;;;;;;;11.30;4.70;;;1.10;99.90;;;;;;5074500;28;20450;-66
2022/01/21 05:22:42;;;;;;;12.00;4.70;;;1.20;99.90;;;;;;5076284;28;21206;-64
2022/01/21 05:25:16;;;;;;;8.80;4.13;;;1.20;99.90;;;;;;5077117;28;20457;-65
2022/01/21 05:27:50;;;;;;;7.50;3.87;;;1.30;99.90;;;;;;5076730;28;20453;-64
2022/01/21 05:30:17;;;;;;;8.63;3.37;;;1.30;99.90;;;;;;5076725;28;20459;-66
2022/01/21 05:32:44;;;;;;;9.60;3.53;;;1.30;99.90;;;;;;5075042;28;20470;-66
2022/01/21 05:35:11;;;;;;;10.70;4.20;;;1.30;99.90;;;;;;5074739;28;20448;-62
2022/01/21 05:37:38;;;;;;;14.53;4.03;;;1.30;99.90;;;;;;5073620;28;20450;-63
2022/01/21 05:40:08;;;;;;;10.03;4.43;;;1.30;99.90;;;;;;5073006;28;20494;-65
2022/01/21 05:42:36;;;;;;;8.17;4.50;;;1.40;99.90;;;;;;5073136;28;20914;-65
2022/01/21 05:47:50;;;;;;;8.13;4.30;;;1.30;99.90;;;;;;5073391;28;20427;-64
2022/01/21 05:50:17;;;;;;;10.87;4.40;;;1.30;99.90;;;;;;5086878;28;20501;-67
2022/01/21 05:52:46;;;;;;;8.77;4.30;;;1.30;99.90;;;;;;5090986;28;20466;-67
2022/01/21 05:55:13;;;;;;;6.30;4.07;;;1.30;99.90;;;;;;5091385;28;20456;-64
2022/01/21 05:57:40;;;;;;;16.90;5.00;;;1.30;99.90;;;;;;5092778;28;20462;-63
2022/01/21 06:00:10;;;;;;;10.43;4.50;;;1.30;99.90;;;;;;5092678;28;20478;-64
2022/01/21 06:02:37;;;;;;;7.57;4.50;;;1.30;99.90;;;;;;5098086;28;20556;-65
2022/01/21 06:05:05;;;;;;;7.57;4.80;;;1.30;99.90;;;;;;5109274;28;20455;-64
2022/01/21 06:07:32;;;;;;;11.93;4.20;;;1.30;99.90;;;;;;5112988;28;20456;-64
2022/01/21 06:09:59;;;;;;;14.17;4.87;;;1.30;99.90;;;;;;5104191;28;20454;-64
2022/01/21 06:12:26;;;;;;;10.30;5.10;;;1.30;99.90;;;;;;5111547;28;20970;-65
2022/01/21 06:14:53;;;;;;;11.13;5.13;;;1.30;99.90;;;;;;5108978;28;20442;-65
2022/01/21 06:17:21;;;;;;;7.87;5.10;;;1.30;99.90;;;;;;5109917;28;20441;-65
2022/01/21 06:19:48;;;;;;;14.13;4.43;;;1.20;99.90;;;;;;5108881;28;20491;-65
2022/01/21 06:22:16;;;;;;;11.30;4.57;;;1.20;99.90;;;;;;5110227;28;20473;-64
2022/01/21 06:24:43;;;;;;;8.03;4.80;;;1.20;99.90;;;;;;5110447;28;20445;-64
2022/01/21 06:27:10;;;;;;;11.73;4.50;;;1.20;99.90;;;;;;5109209;28;20824;-64
2022/01/21 06:29:37;;;;;;;9.73;5.50;;;1.30;99.90;;;;;;5111039;28;20465;-64
2022/01/21 06:32:05;;;;;;;8.47;4.50;;;1.20;99.90;;;;;;5111199;28;20509;-65
2022/01/21 06:34:33;;;;;;;10.50;4.23;;;1.20;99.90;;;;;;5110693;28;20456;-64
2022/01/21 06:37:00;;;;;;;12.90;6.40;;;1.20;99.90;;;;;;5110616;28;20919;-64
2022/01/21 06:39:26;;;;;;;12.50;4.60;;;1.20;99.90;;;;;;5110449;28;20483;-64
2022/01/21 06:41:54;;;;;;;10.53;4.70;;;1.20;99.90;;;;;;5110479;28;20474;-65
2022/01/21 06:44:21;;;;;;;8.83;4.47;;;1.20;99.90;;;;;;5110718;28;20532;-63
2022/01/21 06:46:48;;;;;;;8.90;4.67;;;1.20;99.90;;;;;;5112017;28;21268;-63
2022/01/21 06:49:15;;;;;;;10.50;5.10;;;1.40;99.90;;;;;;5112122;28;21036;-64
2022/01/21 06:51:43;;;;;;;10.00;4.83;;;1.50;99.90;;;;;;5113151;28;20473;-63
2022/01/21 06:54:10;;;;;;;11.63;4.67;;;1.50;99.90;;;;;;5113236;28;20461;-66
2022/01/21 06:56:37;;;;;;;10.03;5.53;;;1.50;99.90;;;;;;5113151;28;20446;-65
2022/01/21 06:59:04;;;;;;;12.70;4.47;;;1.50;99.90;;;;;;5113454;28;20482;-64
2022/01/21 07:01:31;;;;;;;10.03;5.20;;;1.50;99.90;;;;;;5112887;28;20492;-65
2022/01/21 07:03:58;;;;;;;8.73;5.40;;;1.50;99.90;;;;;;5115333;28;20445;-64
2022/01/21 07:06:25;;;;;;;10.93;5.03;;;1.50;99.90;;;;;;5117224;28;20449;-64
2022/01/21 07:08:53;;;;;;;9.47;5.37;;;1.50;99.90;;;;;;5116528;28;20523;-65
2022/01/21 07:11:20;;;;;;;9.77;5.07;;;1.50;99.90;;;;;;5116322;28;20470;-64
2022/01/21 07:13:46;;;;;;;14.10;5.20;;;1.50;99.90;;;;;;5116555;28;20828;-65
2022/01/21 07:16:13;;;;;;;7.47;5.30;;;1.40;99.90;;;;;;5116663;28;20560;-65
2022/01/21 07:18:40;;;;;;;18.63;6.43;;;1.40;99.90;;;;;;5116377;28;20566;-65
2022/01/21 07:21:07;;;;;;;8.53;5.00;;;1.50;99.90;;;;;;5116357;28;20547;-65
2022/01/21 07:23:34;;;;;;;11.50;5.83;;;1.50;99.90;;;;;;5115577;28;20449;-65
2022/01/21 07:26:04;;;;;;;8.10;5.40;;;1.50;99.90;;;;;;5115637;28;20530;-65
2022/01/21 07:28:31;;;;;;;9.77;5.40;;;1.40;99.90;;;;;;5117246;28;20444;-65
2022/01/21 07:30:58;;;;;;;8.60;4.80;;;1.40;99.90;;;;;;5116422;28;21070;-65
2022/01/21 07:33:25;;;;;;;15.00;6.10;;;1.40;99.90;;;;;;5116097;28;20456;-64
2022/01/21 07:35:52;;;;;;;10.30;5.57;;;1.40;99.90;;;;;;5119137;28;20448;-65
2022/01/21 07:38:19;;;;;;;11.53;5.20;;;1.40;99.90;;;;;;5118965;28;20448;-65
2022/01/21 07:40:46;;;;;;;13.30;6.07;;;1.50;99.90;;;;;;5094661;28;20858;-63
2022/01/21 07:43:14;;;;;;;16.70;5.83;;;1.40;99.90;;;;;;5096556;28;20455;-65
2022/01/21 07:45:41;;;;;;;8.93;5.10;;;1.40;99.90;;;;;;5091772;28;20475;-65
2022/01/21 07:48:09;;;;;;;10.63;6.07;;;1.50;99.90;;;;;;5076824;28;20924;-63
2022/01/21 07:50:37;;;;;;;10.27;5.90;;;1.50;99.90;;;;;;5094262;28;20477;-64
2022/01/21 07:53:04;;;;;;;8.73;5.97;;;1.60;99.90;;;;;;5096995;28;20484;-64
2022/01/21 07:55:31;;;;;;;12.53;6.73;;;1.70;99.90;;;;;;5096542;28;20457;-64
2022/01/21 07:58:00;;;;;;;12.60;7.10;;;1.70;99.90;;;;;;5097106;28;20454;-64
2022/01/21 08:00:29;;;;;;;11.47;6.20;;;1.70;99.90;;;;;;5095947;28;20539;-63
2022/01/21 08:02:56;;;;;;;20.17;6.30;;;1.70;99.90;;;;;;5096393;28;20917;-64
2022/01/21 08:05:23;;;;;;;13.63;6.17;;;1.70;99.90;;;;;;5096313;28;20442;-64
2022/01/21 08:07:50;;;;;;;11.97;7.00;;;1.80;99.90;;;;;;5096103;28;20451;-65
2022/01/21 08:10:17;;;;;;;14.43;6.40;;;1.90;99.90;;;;;;5095519;28;20446;-64
2022/01/21 08:12:44;;;;;;;17.43;6.70;;;2.00;99.90;;;;;;5095530;28;20501;-64
2022/01/21 08:15:10;;;;;;;14.33;5.37;;;2.00;99.90;;;;;;5097042;28;20438;-65
2022/01/21 08:17:39;;;;;;;8.10;5.20;;;2.10;99.90;;;;;;5096748;28;20466;-62
2022/01/21 08:20:07;;;;;;;14.03;5.90;;;2.20;99.90;;;;;;5096033;28;20569;-63
2022/01/21 08:22:33;;;;;;;12.10;5.27;;;2.20;99.90;;;;;;5095909;28;20995;-64
2022/01/21 08:25:00;;;;;;;14.27;5.40;;;2.20;99.90;;;;;;5095423;28;20470;-64
2022/01/21 08:27:27;;;;;;;11.43;6.07;;;2.20;99.90;;;;;;5095584;28;20487;-63
2022/01/21 08:29:54;;;;;;;6.70;5.23;;;2.20;99.90;;;;;;5095631;28;21027;-65
2022/01/21 08:32:21;;;;;;;8.57;5.87;;;2.30;99.90;;;;;;5095649;28;20466;-63
2022/01/21 08:34:49;;;;;;;10.03;5.60;;;2.30;99.90;;;;;;5095912;28;20443;-64
2022/01/21 08:37:16;;;;;;;10.20;5.90;;;2.30;99.90;;;;;;5095605;28;21184;-64
2022/01/21 08:39:44;;;;;;;10.73;6.33;;;2.40;99.90;;;;;;5096041;28;20486;-65
2022/01/21 08:42:11;;;;;;;7.97;6.10;;;2.40;99.90;;;;;;5097875;28;20466;-65
2022/01/21 08:44:38;;;;;;;18.17;6.30;;;2.40;99.90;;;;;;5095724;28;20446;-64
2022/01/21 08:47:06;;;;;;;13.90;5.73;;;2.50;99.90;;;;;;5094549;28;20450;-65
2022/01/21 08:49:33;;;;;;;8.83;5.50;;;2.50;99.90;;;;;;5095126;28;20529;-64
2022/01/21 08:52:01;;;;;;;8.37;5.00;;;2.50;99.90;;;;;;5095848;28;21037;-65
2022/01/21 08:54:29;;;;;;;8.50;5.70;;;2.60;99.90;;;;;;5096086;28;20442;-64
2022/01/21 08:56:57;;;;;;;13.33;5.93;;;2.60;99.90;;;;;;5095435;28;20446;-64
2022/01/21 08:59:26;;;;;;;10.80;5.60;;;2.70;99.90;;;;;;5095426;28;21063;-64
2022/01/21 09:01:53;;;;;;;14.73;6.30;;;2.70;99.90;;;;;;5095976;28;20471;-64
2022/01/21 09:04:20;;;;;;;9.27;5.87;;;2.70;99.90;;;;;;5096312;28;20442;-64
2022/01/21 09:06:47;;;;;;;17.10;5.90;;;2.60;99.90;;;;;;5095669;28;20799;-64
2022/01/21 09:09:15;;;;;;;11.97;7.80;;;2.70;99.90;;;;;;5095572;28;20497;-65
2022/01/21 09:11:42;;;;;;;18.20;7.10;;;2.70;99.90;;;;;;5094653;28;20550;-64
2022/01/21 09:14:09;;;;;;;12.23;6.70;;;2.80;99.90;;;;;;5094080;28;20467;-65
2022/01/21 09:16:36;;;;;;;11.80;5.93;;;2.80;99.90;;;;;;5095061;28;21019;-65
2022/01/21 09:19:04;;;;;;;13.10;6.97;;;2.80;99.90;;;;;;5094546;28;20933;-65
2022/01/21 09:21:33;;;;;;;14.60;5.97;;;2.90;99.90;;;;;;5094454;28;20517;-66
2022/01/21 09:24:00;;;;;;;10.57;5.93;;;3.10;99.90;;;;;;5095744;28;20461;-65
2022/01/21 09:26:29;;;;;;;11.20;6.70;;;3.20;99.90;;;;;;5095962;28;20464;-65
2022/01/21 09:28:57;;;;;;;9.57;6.13;;;3.30;99.90;;;;;;5094941;28;20457;-65
2022/01/21 09:31:25;;;;;;;9.90;5.87;;;3.30;99.90;;;;;;5094659;28;20573;-64
2022/01/21 09:33:52;;;;;;;7.50;5.30;;;3.30;99.90;;;;;;5096607;28;20435;-65
2022/01/21 09:36:20;;;;;;;11.07;5.97;;;3.40;99.90;;;;;;5095244;28;20451;-65
2022/01/21 09:38:47;;;;;;;10.83;6.57;;;3.30;99.90;;;;;;5095828;28;20453;-64
2022/01/21 09:41:15;;;;;;;11.20;6.13;;;3.20;99.90;;;;;;5099112;28;20577;-65
2022/01/21 09:43:46;;;;;;;12.17;5.77;;;3.30;99.90;;;;;;5100536;28;20454;-65
2022/01/21 09:46:13;;;;;;;13.03;5.60;;;3.30;99.90;;;;;;5100720;28;20534;-66
2022/01/21 09:48:52;;;;;;;11.70;6.60;;;3.30;99.90;;;;;;5100670;28;20511;-66
2022/01/21 09:51:19;;;;;;;12.30;7.07;;;3.30;99.90;;;;;;5099259;28;20660;-65
2022/01/21 09:53:46;;;;;;;13.47;6.10;;;3.40;99.90;;;;;;5098750;28;20469;-63
2022/01/21 09:56:16;;;;;;;12.97;5.50;;;3.40;99.90;;;;;;5096655;28;20511;-65
2022/01/21 09:58:47;;;;;;;7.03;5.40;;;3.60;99.90;;;;;;5096554;28;20451;-64
2022/01/21 10:01:20;;;;;;;12.20;6.10;;;3.80;99.90;;;;;;5096144;28;20499;-64
2022/01/21 10:03:46;;;;;;;10.70;5.83;;;3.70;99.90;;;;;;5097382;28;20466;-64
2022/01/21 10:06:14;;;;;;;9.60;5.67;;;3.70;99.90;;;;;;5097426;28;20538;-65
2022/01/21 10:08:44;;;;;;;12.03;5.60;;;3.60;99.90;;;;;;5098225;28;20522;-66
2022/01/21 10:11:12;;;;;;;11.20;5.70;;;3.60;99.90;;;;;;5097446;28;20474;-64
2022/01/21 10:13:39;;;;;;;15.50;7.07;;;3.60;99.90;;;;;;5098265;28;21006;-64
2022/01/21 10:16:09;;;;;;;10.30;5.17;;;3.70;99.90;;;;;;5098556;28;20431;-65
2022/01/21 10:18:36;;;;;;;9.20;6.10;;;3.50;99.90;;;;;;5099278;28;20455;-66
2022/01/21 10:21:06;;;;;;;17.27;6.13;;;3.60;99.90;;;;;;5098652;28;20486;-64
2022/01/21 10:23:36;;;;;;;12.53;5.93;;;3.60;99.90;;;;;;5100041;28;20446;-66
2022/01/21 10:26:05;;;;;;;10.40;6.17;;;3.70;99.90;;;;;;5099874;28;20446;-67
2022/01/21 10:28:34;;;;;;;9.77;5.70;;;3.70;99.90;;;;;;5101103;28;20474;-64
2022/01/21 10:31:13;;;;;;;6.70;4.80;;;3.60;99.90;;;;;;5100149;28;20819;-65
2022/01/21 10:33:44;;;;;;;8.53;4.83;;;3.50;99.90;;;;;;5100745;28;20522;-65
2022/01/21 10:36:15;;;;;;;7.13;4.80;;;3.40;99.90;;;;;;5100383;28;20480;-64
2022/01/21 10:38:45;;;;;;;11.30;5.63;;;3.40;99.90;;;;;;5100894;28;20536;-66
2022/01/21 10:41:15;;;;;;;14.73;6.67;;;3.40;99.90;;;;;;5100917;28;20586;-64
2022/01/21 10:43:42;;;;;;;10.37;5.77;;;3.50;99.90;;;;;;5101145;28;20510;-64
2022/01/21 10:46:16;;;;;;;8.97;5.53;;;3.60;99.90;;;;;;5100426;28;20438;-64
2022/01/21 10:49:02;;;;;;;8.27;4.83;;;3.60;99.90;;;;;;5099923;28;20446;-66
2022/01/21 10:51:31;;;;;;;8.30;5.13;;;3.70;99.90;;;;;;5099776;28;20469;-65
2022/01/21 10:53:59;;;;;;;13.10;5.37;;;3.80;99.90;;;;;;5099162;28;20442;-65
2022/01/21 10:56:29;;;;;;;8.63;4.20;;;3.90;99.90;;;;;;5099236;28;20446;-64
2022/01/21 10:58:57;;;;;;;11.30;5.23;;;3.90;99.90;;;;;;5098410;28;20496;-65
2022/01/21 11:01:29;;;;;;;11.30;5.03;;;3.70;99.90;;;;;;5098431;28;20494;-64
2022/01/21 11:04:00;;;;;;;10.20;6.07;;;3.70;99.90;;;;;;5097653;28;20462;-64
2022/01/21 11:06:33;;;;;;;10.73;4.83;;;3.80;99.90;;;;;;5095691;28;20461;-64
2022/01/21 11:09:17;;;;;;;7.97;5.13;;;3.80;99.90;;;;;;5116046;28;20499;-65
2022/01/21 11:11:45;;;;;;;11.97;5.40;;;3.90;99.90;;;;;;5082210;28;20972;-64
2022/01/21 11:14:13;;;;;;;8.93;5.13;;;4.00;99.90;;;;;;5096857;28;20506;-65
2022/01/21 11:16:45;;;;;;;16.53;4.73;;;4.00;99.90;;;;;;5098092;28;20485;-64
2022/01/21 11:19:15;;;;;;;9.50;5.53;;;3.90;99.90;;;;;;5097508;28;20462;-64
2022/01/21 11:21:45;;;;;;;10.30;4.77;;;3.90;99.90;;;;;;5096891;28;20577;-64
2022/01/21 11:24:15;;;;;;;12.33;4.73;;;3.90;99.90;;;;;;5080027;28;20442;-65
2022/01/21 11:26:43;;;;;;;14.17;5.70;;;4.00;99.90;;;;;;5097919;28;21094;-65
2022/01/21 11:29:11;;;;;;;9.47;5.47;;;4.00;99.90;;;;;;5097869;28;20926;-64
2022/01/21 11:31:38;;;;;;;9.37;4.60;;;4.00;99.90;;;;;;5098228;28;20538;-65
2022/01/21 11:34:06;;;;;;;9.20;4.93;;;4.10;99.90;;;;;;5086478;28;20469;-66
2022/01/21 11:36:33;;;;;;;6.83;4.50;;;4.00;99.90;;;;;;5096229;28;20537;-65
2022/01/21 11:39:00;;;;;;;14.13;5.07;;;3.90;99.90;;;;;;5096367;28;20978;-65
2022/01/21 11:41:29;;;;;;;9.10;4.87;;;3.90;99.90;;;;;;5097034;28;20482;-65
2022/01/21 11:44:01;;;;;;;8.70;4.73;;;3.90;99.90;;;;;;5097322;28;20445;-65
2022/01/21 11:46:59;;;;;;;7.97;3.63;;;3.80;99.90;;;;;;5097568;28;20439;-64
2022/01/21 11:49:29;;;;;;;8.43;4.23;;;3.90;99.90;;;;;;5091738;28;20794;-64
2022/01/21 11:52:18;;;;;;;9.10;4.03;;;3.90;99.90;;;;;;5117060;28;20454;-64
2022/01/21 11:54:45;;;;;;;13.00;4.07;;;3.80;99.90;;;;;;5111378;28;20450;-64
2022/01/21 11:57:15;;;;;;;8.10;4.20;;;3.80;99.90;;;;;;5098873;28;20503;-67
2022/01/21 11:59:51;;;;;;;8.20;3.93;;;3.80;99.90;;;;;;5098097;28;20861;-65
2022/01/21 12:02:23;;;;;;;11.07;3.60;;;3.80;99.90;;;;;;5097838;28;20463;-65
2022/01/21 12:04:53;;;;;;;5.90;3.90;;;3.80;99.90;;;;;;5097795;28;20473;-65
2022/01/21 12:07:57;;;;;;;9.00;4.03;;;3.70;99.90;;;;;;5097827;28;20530;-64
2022/01/21 12:10:38;;;;;;;7.60;4.37;;;3.70;99.90;;;;;;5097340;28;20518;-64
2022/01/21 12:13:18;;;;;;;10.60;4.53;;;3.70;99.90;;;;;;5098287;28;20470;-65
2022/01/21 12:21:53;;;;;;;9.00;3.80;;;3.80;99.90;;;;;;5090388;28;20479;-64
2022/01/21 12:24:45;;;;;;;11.80;4.00;;;3.90;99.90;;;;;;5103747;28;20442;-65
2022/01/21 12:27:13;;;;;;;8.43;4.30;;;4.00;99.90;;;;;;5089331;28;20515;-66
2022/01/21 12:29:41;;;;;;;8.63;3.93;;;4.00;99.90;;;;;;5098965;28;20506;-64
2022/01/21 12:32:18;;;;;;;8.53;3.40;;;4.10;99.90;;;;;;5100665;28;20482;-64
2022/01/21 12:35:17;;;;;;;7.40;3.80;;;4.10;99.90;;;;;;5101155;28;20446;-65
2022/01/21 12:41:24;;;;;;;6.60;3.10;;;4.20;99.90;;;;;;5098015;28;21126;-65
2022/01/21 12:43:53;;;;;;;9.60;2.80;;;4.20;99.90;;;;;;5102072;28;20526;-65
2022/01/21 12:46:30;;;;;;;7.57;3.33;;;4.20;99.90;;;;;;5100966;28;20439;-65
2022/01/21 12:48:59;;;;;;;6.93;4.30;;;4.30;99.90;;;;;;5100875;28;20434;-64
2022/01/21 12:51:45;;;;;;;6.63;3.33;;;4.20;99.90;;;;;;5100464;28;20547;-65
2022/01/21 12:57:03;;;;;;;6.63;4.10;;;4.20;99.90;;;;;;5042906;28;20524;-66
2022/01/21 12:59:31;;;;;;;8.20;3.70;;;4.20;99.90;;;;;;5101441;28;20457;-65
2022/01/21 13:01:59;;;;;;;7.43;3.43;;;4.30;99.90;;;;;;5102252;28;20479;-65
2022/01/21 13:04:38;;;;;;;8.77;3.90;;;4.30;99.90;;;;;;5102007;28;20453;-65
2022/01/21 13:07:09;;;;;;;9.43;3.27;;;4.30;99.90;;;;;;5101282;28;20462;-66
2022/01/21 13:09:55;;;;;;;6.47;4.40;;;4.30;99.90;;;;;;5094030;28;20473;-67
2022/01/21 13:12:25;;;;;;;11.67;3.90;;;4.30;99.90;;;;;;5099535;28;20546;-65
2022/01/21 13:14:53;;;;;;;8.50;3.70;;;4.40;99.90;;;;;;5093384;28;20506;-65
2022/01/21 13:17:21;;;;;;;13.13;3.17;;;4.30;99.90;;;;;;5101069;28;20895;-66
2022/01/21 13:19:49;;;;;;;14.77;3.50;;;4.30;99.90;;;;;;5100997;28;20502;-68
2022/01/21 13:22:18;;;;;;;9.33;4.10;;;4.30;99.90;;;;;;5099991;28;20482;-67
2022/01/21 13:25:03;;;;;;;7.53;3.17;;;4.40;99.90;;;;;;5099874;28;20798;-66
2022/01/21 13:27:31;;;;;;;6.53;2.77;;;4.50;99.90;;;;;;5099076;28;20504;-66
2022/01/21 13:29:59;;;;;;;8.20;3.00;;;4.40;99.90;;;;;;5096849;28;20521;-65
2022/01/21 13:32:27;;;;;;;6.97;3.10;;;4.40;99.90;;;;;;5095850;28;20447;-65
2022/01/21 13:35:07;;;;;;;10.43;3.37;;;4.40;99.90;;;;;;5097186;28;20542;-67
2022/01/21 13:37:37;;;;;;;10.93;3.63;;;4.30;99.90;;;;;;5098754;28;20451;-65
2022/01/21 13:40:08;;;;;;;6.57;3.27;;;4.30;99.90;;;;;;5094727;28;20431;-65
2022/01/21 13:42:36;;;;;;;9.27;3.30;;;4.20;99.90;;;;;;5099654;28;20475;-66
2022/01/21 13:45:08;;;;;;;6.47;3.37;;;4.20;99.90;;;;;;5099563;28;20442;-64
2022/01/21 13:47:37;;;;;;;8.83;3.60;;;4.10;99.90;;;;;;5100526;28;20455;-66
2022/01/21 13:50:11;;;;;;;7.83;3.60;;;4.10;99.90;;;;;;5096351;28;20455;-66
2022/01/21 13:52:41;;;;;;;7.90;3.53;;;4.10;99.90;;;;;;5098685;28;20523;-64
2022/01/21 13:55:13;;;;;;;7.90;3.40;;;4.00;99.90;;;;;;5099800;28;20550;-64